Time;durP1;ratioP1;P1;durP2;ratioP2;P2;SDS_P1;SDS_P2;PMS_P1;PMS_P2;Temp;Humidity;BMP_temperature;BMP_pressure;BME280_temperature;BME280_humidity;BME280_pressure;Samples;Min_cycle;Max_cycle;Signal;HPM_P1;HPM_P2
2023/04/09 02:01:32;;;;;;;12.57;6.85;;;;;;;;;;4601772;28;20091;-68
2023/04/09 02:04:01;;;;;;;13.57;7.75;;;;;;;;;;4223115;34;20081;-67
2023/04/09 02:06:41;;;;;;;10.40;6.80;;;;;;;;;;4220887;34;20394;-68
2023/04/09 02:09:08;;;;;;;16.83;7.93;;;;;;;;;;4222310;34;20149;-68
2023/04/09 02:11:39;;;;;;;14.77;7.25;;;;;;;;;;4222642;34;20106;-68
2023/04/09 02:14:07;;;;;;;15.70;8.00;;;;;;;;;;4222945;34;20089;-69
2023/04/09 02:16:35;;;;;;;10.52;6.75;;;;;;;;;;4220848;34;20918;-69
2023/04/09 02:19:01;;;;;;;16.10;7.53;;;;;;;;;;4207723;34;20077;-68
2023/04/09 02:21:28;;;;;;;13.85;6.72;;;;;;;;;;4209781;34;20050;-68
2023/04/09 02:23:54;;;;;;;16.83;7.28;;;;;;;;;;4209912;34;20078;-67
2023/04/09 02:26:21;;;;;;;15.43;8.23;;;;;;;;;;4198442;34;20474;-68
2023/04/09 02:28:47;;;;;;;20.15;10.18;;;;;;;;;;4207815;34;20104;-67
2023/04/09 02:31:13;;;;;;;22.73;11.40;;;;;;;;;;4165819;34;20085;-67
2023/04/09 02:33:40;;;;;;;22.10;11.35;;;;;;;;;;4176833;34;20437;-67
2023/04/09 02:36:06;;;;;;;20.50;11.20;;;;;;;;;;4204665;34;20520;-68
2023/04/09 02:38:32;;;;;;;18.62;10.13;;;;;;;;;;4204446;34;20441;-70
2023/04/09 02:40:58;;;;;;;22.15;11.77;;;;;;;;;;4206153;34;20078;-68
2023/04/09 02:43:24;;;;;;;19.92;10.70;;;;;;;;;;4207650;34;20059;-68
2023/04/09 02:45:50;;;;;;;16.48;8.85;;;;;;;;;;4197661;34;20059;-67
2023/04/09 02:48:17;;;;;;;18.75;10.00;;;;;;;;;;4193290;34;20073;-67
2023/04/09 02:50:43;;;;;;;19.30;10.65;;;;;;;;;;4200942;34;20492;-69
2023/04/09 02:53:10;;;;;;;19.30;11.55;;;;;;;;;;4207892;34;20055;-68
2023/04/09 02:55:36;;;;;;;18.33;10.60;;;;;;;;;;4207784;34;20046;-68
2023/04/09 02:58:02;;;;;;;19.83;11.27;;;;;;;;;;4208213;34;20044;-68
2023/04/09 03:00:28;;;;;;;19.95;12.23;;;;;;;;;;4209210;34;20124;-68
2023/04/09 03:02:55;;;;;;;26.42;12.50;;;;;;;;;;4217001;33;20055;-68
2023/04/09 03:05:21;;;;;;;20.52;11.65;;;;;;;;;;4223274;34;20078;-67
2023/04/09 03:07:48;;;;;;;22.30;11.95;;;;;;;;;;4222964;33;20050;-67
2023/04/09 03:10:14;;;;;;;20.75;12.98;;;;;;;;;;4234454;33;20094;-68
2023/04/09 03:12:43;;;;;;;22.40;11.70;;;;;;;;;;4235827;33;20076;-69
2023/04/09 03:15:09;;;;;;;19.60;12.02;;;;;;;;;;4235222;33;20068;-70
2023/04/09 03:17:36;;;;;;;25.17;11.25;;;;;;;;;;4209259;34;20441;-69
2023/04/09 03:20:02;;;;;;;20.25;10.90;;;;;;;;;;4207985;34;20122;-68
2023/04/09 03:22:36;;;;;;;20.95;11.18;;;;;;;;;;4207689;34;20216;-68
2023/04/09 03:25:03;;;;;;;24.55;11.85;;;;;;;;;;4206481;34;20065;-68
2023/04/09 03:27:31;;;;;;;18.15;10.15;;;;;;;;;;4208491;34;20090;-67
2023/04/09 03:29:57;;;;;;;26.27;12.55;;;;;;;;;;4207986;34;20043;-68
2023/04/09 03:32:24;;;;;;;19.17;11.65;;;;;;;;;;4209036;34;20052;-68
2023/04/09 03:34:50;;;;;;;27.20;11.30;;;;;;;;;;4205857;34;20188;-69
2023/04/09 03:37:19;;;;;;;26.33;11.63;;;;;;;;;;4208831;34;20059;-68
2023/04/09 03:39:45;;;;;;;24.85;13.15;;;;;;;;;;4208283;34;20046;-68
2023/04/09 03:42:12;;;;;;;24.37;12.75;;;;;;;;;;4207734;34;20216;-68
2023/04/09 03:44:39;;;;;;;20.95;11.02;;;;;;;;;;4207510;34;20095;-69
2023/04/09 03:47:06;;;;;;;20.30;11.50;;;;;;;;;;4206510;34;20405;-69
2023/04/09 03:49:35;;;;;;;23.10;11.10;;;;;;;;;;4220877;34;20461;-69
2023/04/09 03:52:02;;;;;;;15.75;9.95;;;;;;;;;;4222373;34;20067;-68
2023/04/09 03:54:31;;;;;;;20.25;11.30;;;;;;;;;;4208194;34;20036;-67
2023/04/09 03:56:58;;;;;;;20.37;10.38;;;;;;;;;;4209348;34;20112;-68
2023/04/09 03:59:25;;;;;;;21.10;10.23;;;;;;;;;;4220302;33;20138;-69
2023/04/09 04:01:51;;;;;;;19.12;10.65;;;;;;;;;;4221035;33;20050;-69
2023/04/09 04:04:18;;;;;;;21.17;11.57;;;;;;;;;;4221358;34;20221;-68
2023/04/09 04:06:45;;;;;;;21.55;12.23;;;;;;;;;;4221100;34;20063;-69
2023/04/09 04:09:12;;;;;;;22.77;12.18;;;;;;;;;;4219600;34;20038;-68
2023/04/09 04:11:39;;;;;;;23.02;12.37;;;;;;;;;;4207270;34;20178;-68
2023/04/09 04:14:05;;;;;;;26.73;13.20;;;;;;;;;;4207387;34;20043;-68
2023/04/09 04:16:32;;;;;;;25.45;12.93;;;;;;;;;;4205384;34;20496;-68
2023/04/09 04:18:59;;;;;;;28.25;12.85;;;;;;;;;;4205323;34;20047;-70
2023/04/09 04:21:26;;;;;;;25.30;13.65;;;;;;;;;;4205183;34;20059;-68
2023/04/09 04:23:53;;;;;;;23.87;13.75;;;;;;;;;;4205716;34;20529;-68
2023/04/09 04:26:20;;;;;;;20.12;12.40;;;;;;;;;;4178317;34;20141;-68
2023/04/09 04:28:52;;;;;;;24.42;13.40;;;;;;;;;;4179257;34;20481;-68
2023/04/09 04:31:21;;;;;;;24.12;12.43;;;;;;;;;;4167786;34;20112;-68
2023/04/09 04:33:48;;;;;;;22.62;12.68;;;;;;;;;;4166083;34;20085;-68
2023/04/09 04:36:14;;;;;;;21.80;11.38;;;;;;;;;;4164397;34;20517;-68
2023/04/09 04:38:41;;;;;;;21.95;12.15;;;;;;;;;;4166199;34;20085;-68
2023/04/09 04:41:09;;;;;;;19.60;11.57;;;;;;;;;;4186031;34;20102;-70
2023/04/09 04:43:36;;;;;;;21.92;11.85;;;;;;;;;;4206084;34;20073;-68
2023/04/09 04:46:02;;;;;;;21.77;12.15;;;;;;;;;;4207675;34;20067;-68
2023/04/09 04:48:29;;;;;;;23.90;12.50;;;;;;;;;;4206523;34;20468;-67
2023/04/09 04:50:56;;;;;;;21.02;11.55;;;;;;;;;;4190199;34;20068;-68
2023/04/09 04:53:23;;;;;;;25.48;12.85;;;;;;;;;;4191126;34;20052;-67
2023/04/09 04:55:50;;;;;;;27.58;12.50;;;;;;;;;;4192803;34;20513;-67
2023/04/09 04:58:17;;;;;;;25.83;13.80;;;;;;;;;;4233058;33;20435;-68
2023/04/09 05:00:44;;;;;;;24.02;13.35;;;;;;;;;;4249555;33;20072;-68
2023/04/09 05:03:10;;;;;;;26.40;14.63;;;;;;;;;;4246789;33;20052;-70
2023/04/09 05:05:37;;;;;;;29.67;15.13;;;;;;;;;;4234017;33;20946;-68
2023/04/09 05:08:04;;;;;;;31.08;15.50;;;;;;;;;;4235568;33;20042;-67
2023/04/09 05:10:30;;;;;;;27.90;15.30;;;;;;;;;;4234643;33;20405;-69
2023/04/09 05:12:56;;;;;;;29.17;14.93;;;;;;;;;;4234045;33;20039;-69
2023/04/09 05:15:24;;;;;;;30.37;15.93;;;;;;;;;;4232135;33;20054;-68
2023/04/09 05:17:53;;;;;;;27.40;14.70;;;;;;;;;;4234906;33;20191;-68
2023/04/09 05:20:21;;;;;;;31.40;15.80;;;;;;;;;;4221683;33;20096;-67
2023/04/09 05:22:48;;;;;;;32.72;16.85;;;;;;;;;;4234743;33;20045;-69
2023/04/09 05:25:15;;;;;;;26.73;14.73;;;;;;;;;;4232768;33;20056;-69
2023/04/09 05:27:42;;;;;;;35.00;17.15;;;;;;;;;;4224327;33;20962;-68
2023/04/09 05:30:09;;;;;;;38.60;18.60;;;;;;;;;;4237346;33;20131;-69
2023/04/09 05:32:36;;;;;;;32.53;17.33;;;;;;;;;;4238263;33;20058;-67
2023/04/09 05:35:03;;;;;;;34.50;18.50;;;;;;;;;;4237154;33;20489;-70
2023/04/09 05:37:30;;;;;;;33.15;18.37;;;;;;;;;;4250425;33;20082;-69
2023/04/09 05:39:57;;;;;;;34.80;19.33;;;;;;;;;;4224016;33;20067;-69
2023/04/09 05:42:23;;;;;;;39.72;19.77;;;;;;;;;;4223019;33;20046;-68
2023/04/09 05:44:50;;;;;;;38.72;18.50;;;;;;;;;;4230492;33;20533;-69
2023/04/09 05:47:17;;;;;;;40.95;19.17;;;;;;;;;;4236616;33;20061;-71
2023/04/09 05:49:44;;;;;;;43.03;19.73;;;;;;;;;;4235145;33;20558;-69
2023/04/09 05:52:11;;;;;;;42.80;21.90;;;;;;;;;;4232814;33;20062;-69
2023/04/09 05:54:37;;;;;;;40.97;20.85;;;;;;;;;;4222711;34;20491;-68
2023/04/09 05:57:04;;;;;;;43.30;19.85;;;;;;;;;;4235430;33;20064;-69
2023/04/09 05:59:34;;;;;;;41.10;22.55;;;;;;;;;;4236262;33;20086;-71
2023/04/09 06:02:00;;;;;;;37.83;19.40;;;;;;;;;;4233055;33;20046;-68
2023/04/09 06:04:27;;;;;;;42.30;20.65;;;;;;;;;;4237220;33;20398;-68
2023/04/09 06:06:54;;;;;;;37.42;19.60;;;;;;;;;;4236797;33;20043;-68
2023/04/09 06:09:20;;;;;;;37.85;19.67;;;;;;;;;;4236159;33;20068;-68
2023/04/09 06:11:46;;;;;;;40.00;21.15;;;;;;;;;;4233901;33;20397;-69
2023/04/09 06:14:16;;;;;;;40.95;21.80;;;;;;;;;;4237170;33;20113;-68
2023/04/09 06:16:42;;;;;;;39.35;21.25;;;;;;;;;;4239705;33;20039;-69
2023/04/09 06:19:11;;;;;;;41.40;20.67;;;;;;;;;;4255947;33;20156;-68
2023/04/09 06:21:37;;;;;;;44.42;21.33;;;;;;;;;;4262593;33;20119;-70
2023/04/09 06:24:03;;;;;;;41.25;21.80;;;;;;;;;;4263878;33;20064;-67
2023/04/09 06:26:29;;;;;;;39.22;21.10;;;;;;;;;;4265152;33;20065;-68
2023/04/09 06:28:55;;;;;;;41.55;20.58;;;;;;;;;;4254611;33;20044;-68
2023/04/09 06:31:21;;;;;;;33.15;18.67;;;;;;;;;;4252679;33;20101;-67
2023/04/09 06:33:48;;;;;;;41.30;20.90;;;;;;;;;;4263405;33;20049;-69
2023/04/09 06:36:14;;;;;;;39.45;20.23;;;;;;;;;;4263413;33;20709;-68
2023/04/09 06:38:40;;;;;;;43.47;23.23;;;;;;;;;;4265413;33;20115;-68
2023/04/09 06:41:07;;;;;;;42.75;22.80;;;;;;;;;;4264041;33;20089;-68
2023/04/09 06:43:35;;;;;;;43.42;23.73;;;;;;;;;;4262915;33;20077;-68
2023/04/09 06:46:01;;;;;;;45.72;24.55;;;;;;;;;;4263059;33;20067;-68
2023/04/09 06:48:28;;;;;;;49.65;23.95;;;;;;;;;;4265592;33;20050;-69
2023/04/09 06:50:54;;;;;;;47.00;24.12;;;;;;;;;;4265306;33;20463;-69
2023/04/09 06:53:20;;;;;;;43.42;21.42;;;;;;;;;;4264710;33;20447;-70
2023/04/09 06:55:46;;;;;;;38.90;19.33;;;;;;;;;;4253091;33;20055;-73
2023/04/09 06:58:12;;;;;;;31.37;17.45;;;;;;;;;;4250526;33;20038;-72
2023/04/09 07:00:38;;;;;;;34.47;19.10;;;;;;;;;;4251392;33;20113;-69
2023/04/09 07:03:07;;;;;;;41.17;21.08;;;;;;;;;;4252584;33;20080;-69
2023/04/09 07:05:34;;;;;;;34.05;17.65;;;;;;;;;;4252575;33;20378;-70
2023/04/09 07:08:01;;;;;;;37.47;19.25;;;;;;;;;;4232226;33;20501;-70
2023/04/09 07:10:27;;;;;;;38.63;19.40;;;;;;;;;;4233045;33;20097;-69
2023/04/09 07:12:53;;;;;;;39.20;18.52;;;;;;;;;;4204674;34;20809;-68
2023/04/09 07:15:19;;;;;;;32.78;17.77;;;;;;;;;;4206423;34;20090;-69
2023/04/09 07:17:46;;;;;;;35.72;18.23;;;;;;;;;;4207397;34;20051;-70
2023/04/09 07:20:12;;;;;;;40.97;19.20;;;;;;;;;;4202956;34;20095;-68
2023/04/09 07:22:38;;;;;;;45.33;21.50;;;;;;;;;;4193112;34;20093;-72
2023/04/09 07:25:04;;;;;;;35.53;18.27;;;;;;;;;;4187895;34;20102;-68
2023/04/09 07:27:31;;;;;;;35.03;19.62;;;;;;;;;;4194000;34;20096;-68
2023/04/09 07:29:57;;;;;;;38.08;18.73;;;;;;;;;;4194393;34;20057;-68
2023/04/09 07:32:25;;;;;;;36.03;19.23;;;;;;;;;;4191104;34;20070;-68
2023/04/09 07:34:51;;;;;;;33.97;18.25;;;;;;;;;;4191816;34;20059;-68
2023/04/09 07:37:18;;;;;;;34.53;17.75;;;;;;;;;;4193084;34;20069;-68
2023/04/09 07:39:46;;;;;;;33.80;17.77;;;;;;;;;;4192645;34;20072;-69
2023/04/09 07:42:12;;;;;;;35.67;17.25;;;;;;;;;;4190494;34;20048;-68
2023/04/09 07:44:39;;;;;;;29.83;16.40;;;;;;;;;;4214815;33;20938;-68
2023/04/09 07:47:06;;;;;;;35.72;17.70;;;;;;;;;;4220475;33;20059;-68
2023/04/09 07:49:32;;;;;;;29.25;17.10;;;;;;;;;;4231643;33;20097;-68
2023/04/09 07:51:59;;;;;;;32.67;18.15;;;;;;;;;;4218976;33;20392;-68
2023/04/09 07:54:25;;;;;;;32.00;18.55;;;;;;;;;;4225770;33;20412;-68
2023/04/09 07:56:52;;;;;;;34.63;19.05;;;;;;;;;;4190679;34;20611;-69
2023/04/09 07:59:18;;;;;;;32.22;17.42;;;;;;;;;;4193370;34;20082;-70
2023/04/09 08:01:44;;;;;;;34.38;19.05;;;;;;;;;;4191364;34;20101;-70
2023/04/09 08:04:11;;;;;;;30.83;17.25;;;;;;;;;;4205029;34;20180;-68
2023/04/09 08:06:38;;;;;;;32.35;16.30;;;;;;;;;;4194519;34;20103;-70
2023/04/09 08:09:04;;;;;;;28.05;15.18;;;;;;;;;;4193424;34;20046;-69
2023/04/09 08:11:31;;;;;;;29.48;15.18;;;;;;;;;;4192788;34;20055;-68
2023/04/09 08:13:57;;;;;;;27.98;15.80;;;;;;;;;;4165881;34;20062;-68
2023/04/09 08:16:23;;;;;;;25.50;13.88;;;;;;;;;;4165162;34;20055;-73
2023/04/09 08:18:49;;;;;;;29.10;15.75;;;;;;;;;;4164275;34;20193;-72
2023/04/09 08:21:16;;;;;;;24.65;14.75;;;;;;;;;;4153139;34;20056;-68
2023/04/09 08:23:42;;;;;;;24.58;14.45;;;;;;;;;;4158958;34;20064;-68
2023/04/09 08:26:09;;;;;;;23.23;14.00;;;;;;;;;;4155353;34;20060;-69
2023/04/09 08:28:35;;;;;;;24.50;14.73;;;;;;;;;;4158883;34;20105;-70
2023/04/09 08:31:01;;;;;;;25.02;14.10;;;;;;;;;;4177112;34;20715;-70
2023/04/09 08:33:28;;;;;;;29.48;16.92;;;;;;;;;;4178121;34;20075;-68
2023/04/09 08:35:54;;;;;;;30.83;14.93;;;;;;;;;;4177772;34;20066;-69
2023/04/09 08:38:20;;;;;;;28.67;15.68;;;;;;;;;;4184496;34;20651;-69
2023/04/09 08:40:46;;;;;;;20.73;13.48;;;;;;;;;;4187756;34;20065;-70
2023/04/09 08:43:15;;;;;;;22.70;12.30;;;;;;;;;;4181945;34;20051;-71
2023/04/09 08:45:41;;;;;;;22.17;12.73;;;;;;;;;;4196325;34;20142;-69
2023/04/09 08:48:12;;;;;;;21.02;12.25;;;;;;;;;;4214130;34;20042;-68
2023/04/09 08:50:39;;;;;;;20.23;10.65;;;;;;;;;;4213717;34;20046;-70
2023/04/09 08:53:06;;;;;;;27.80;13.73;;;;;;;;;;4206103;34;20711;-70
2023/04/09 08:55:33;;;;;;;26.40;13.82;;;;;;;;;;4217388;33;20062;-69
2023/04/09 08:57:59;;;;;;;23.98;12.98;;;;;;;;;;4223306;33;20054;-68
2023/04/09 09:00:26;;;;;;;26.65;13.25;;;;;;;;;;4246596;33;20070;-69
2023/04/09 09:03:02;;;;;;;23.02;13.73;;;;;;;;;;4233431;33;20080;-70
2023/04/09 09:05:54;;;;;;;18.77;11.10;;;;;;;;;;4240462;33;20062;-69
2023/04/09 09:08:24;;;;;;;20.40;11.70;;;;;;;;;;4231687;33;20035;-69
2023/04/09 09:10:50;;;;;;;20.55;11.23;;;;;;;;;;4218443;33;20070;-72
2023/04/09 09:13:26;;;;;;;22.75;12.25;;;;;;;;;;4234916;33;20837;-69
2023/04/09 09:15:55;;;;;;;23.45;11.40;;;;;;;;;;4223550;33;20203;-69
2023/04/09 09:18:36;;;;;;;19.80;11.98;;;;;;;;;;4218017;33;20100;-68
2023/04/09 09:21:13;;;;;;;21.00;12.35;;;;;;;;;;4214406;33;20086;-67
2023/04/09 09:23:39;;;;;;;19.15;11.45;;;;;;;;;;4212934;33;20116;-69
2023/04/09 09:26:19;;;;;;;23.40;13.27;;;;;;;;;;4219692;34;20085;-69
2023/04/09 09:28:47;;;;;;;19.20;10.75;;;;;;;;;;4218543;33;20039;-71
2023/04/09 09:31:14;;;;;;;19.42;11.45;;;;;;;;;;4215127;34;20771;-68
2023/04/09 09:33:40;;;;;;;23.38;10.82;;;;;;;;;;4233256;33;20111;-70
2023/04/09 09:36:09;;;;;;;20.37;10.98;;;;;;;;;;4234985;33;20380;-70
2023/04/09 09:38:52;;;;;;;21.20;11.43;;;;;;;;;;4249172;33;20046;-69
2023/04/09 09:41:19;;;;;;;18.60;10.43;;;;;;;;;;4247167;33;20885;-69
2023/04/09 09:43:45;;;;;;;19.52;10.75;;;;;;;;;;4239605;33;20050;-68
2023/04/09 09:46:19;;;;;;;16.35;10.05;;;;;;;;;;4241426;33;20237;-70
2023/04/09 09:48:45;;;;;;;15.00;10.68;;;;;;;;;;4237151;33;20080;-68
2023/04/09 09:51:12;;;;;;;18.33;11.50;;;;;;;;;;4234855;33;20074;-68
2023/04/09 09:53:40;;;;;;;16.50;10.35;;;;;;;;;;4206954;34;20486;-68
2023/04/09 09:56:10;;;;;;;18.33;10.63;;;;;;;;;;4219292;33;20042;-69
2023/04/09 09:58:39;;;;;;;20.17;10.00;;;;;;;;;;4224173;33;20376;-70
2023/04/09 10:01:12;;;;;;;17.15;10.80;;;;;;;;;;4210804;34;20663;-69
2023/04/09 10:03:39;;;;;;;19.73;11.23;;;;;;;;;;4198549;34;20065;-70
2023/04/09 10:06:06;;;;;;;16.42;9.40;;;;;;;;;;4206646;34;20102;-70
2023/04/09 10:08:33;;;;;;;15.40;9.77;;;;;;;;;;4183702;34;20028;-72
2023/04/09 10:11:00;;;;;;;15.75;9.30;;;;;;;;;;4178431;34;20095;-68
2023/04/09 10:13:49;;;;;;;14.18;9.15;;;;;;;;;;4180160;34;20047;-70
2023/04/09 10:16:17;;;;;;;11.60;7.87;;;;;;;;;;4160782;34;20074;-69
2023/04/09 10:18:43;;;;;;;12.88;9.80;;;;;;;;;;4171647;34;20088;-70
2023/04/09 10:21:13;;;;;;;19.60;9.68;;;;;;;;;;4168449;34;20120;-70
2023/04/09 10:23:47;;;;;;;18.27;10.75;;;;;;;;;;4171036;34;20109;-70
2023/04/09 10:26:13;;;;;;;16.23;9.25;;;;;;;;;;4169875;34;20052;-72
2023/04/09 10:28:40;;;;;;;16.92;8.98;;;;;;;;;;4175383;34;20129;-70
2023/04/09 10:31:07;;;;;;;23.45;10.75;;;;;;;;;;4190161;33;20058;-70
2023/04/09 10:33:35;;;;;;;14.95;9.93;;;;;;;;;;4227909;33;20121;-68
2023/04/09 10:36:04;;;;;;;17.67;12.32;;;;;;;;;;4219916;33;20445;-69
2023/04/09 10:38:34;;;;;;;20.35;11.15;;;;;;;;;;4219149;33;20030;-70
2023/04/09 10:41:08;;;;;;;19.58;10.82;;;;;;;;;;4231179;33;20054;-69
2023/04/09 10:43:35;;;;;;;16.15;10.15;;;;;;;;;;4235902;33;20377;-69
2023/04/09 10:46:03;;;;;;;18.95;10.98;;;;;;;;;;4233501;33;20062;-72
2023/04/09 10:48:33;;;;;;;17.70;10.48;;;;;;;;;;4225943;33;20108;-71
2023/04/09 10:51:01;;;;;;;15.73;9.25;;;;;;;;;;4209303;33;20062;-69
2023/04/09 10:53:27;;;;;;;16.55;10.18;;;;;;;;;;4232998;33;20118;-69
2023/04/09 10:55:54;;;;;;;13.88;8.57;;;;;;;;;;4225029;33;20129;-70
2023/04/09 10:58:20;;;;;;;15.50;10.05;;;;;;;;;;4231058;33;20043;-71
2023/04/09 11:00:57;;;;;;;14.85;8.40;;;;;;;;;;4379986;28;20084;-70
2023/04/09 11:03:23;;;;;;;12.07;8.60;;;;;;;;;;4206354;34;20096;-72
2023/04/09 11:06:04;;;;;;;13.70;9.43;;;;;;;;;;4207942;34;20068;-70
2023/04/09 11:08:32;;;;;;;15.98;9.02;;;;;;;;;;4212644;33;20032;-70
2023/04/09 11:10:59;;;;;;;17.70;9.73;;;;;;;;;;4208169;34;20059;-69
2023/04/09 11:13:27;;;;;;;15.80;9.85;;;;;;;;;;4163983;34;20059;-70
2023/04/09 11:15:54;;;;;;;16.12;9.85;;;;;;;;;;4166285;34;20052;-70
2023/04/09 11:18:27;;;;;;;14.98;9.63;;;;;;;;;;4175709;34;20410;-70
2023/04/09 11:20:58;;;;;;;13.05;9.13;;;;;;;;;;4188523;34;20055;-71
2023/04/09 11:23:24;;;;;;;13.05;8.95;;;;;;;;;;4172510;34;20070;-72
2023/04/09 11:25:51;;;;;;;21.95;10.40;;;;;;;;;;4165678;34;20067;-69
2023/04/09 11:28:18;;;;;;;15.00;10.05;;;;;;;;;;4167907;34;20178;-69
2023/04/09 11:30:45;;;;;;;16.42;10.00;;;;;;;;;;4169232;34;20060;-69
2023/04/09 11:33:12;;;;;;;25.02;9.65;;;;;;;;;;4170009;34;20450;-69
2023/04/09 11:35:38;;;;;;;12.45;8.63;;;;;;;;;;4163031;34;20061;-70
2023/04/09 11:38:05;;;;;;;16.08;9.85;;;;;;;;;;4159622;34;20128;-68
2023/04/09 11:40:31;;;;;;;19.42;8.65;;;;;;;;;;4152329;34;20507;-69
2023/04/09 11:42:58;;;;;;;16.30;8.15;;;;;;;;;;4151904;34;20494;-69
2023/04/09 11:45:27;;;;;;;13.68;7.90;;;;;;;;;;4153374;34;20056;-71
2023/04/09 11:47:53;;;;;;;12.18;8.38;;;;;;;;;;4150103;34;20040;-69
2023/04/09 11:50:20;;;;;;;14.98;9.00;;;;;;;;;;4152741;34;20056;-69
2023/04/09 11:52:46;;;;;;;12.18;7.90;;;;;;;;;;4152656;34;20048;-70
2023/04/09 11:55:21;;;;;;;12.35;8.57;;;;;;;;;;4159315;34;20059;-70
2023/04/09 11:57:50;;;;;;;11.48;8.00;;;;;;;;;;4153885;34;20056;-68
2023/04/09 12:00:16;;;;;;;13.35;8.10;;;;;;;;;;4163168;34;20060;-70
2023/04/09 12:02:46;;;;;;;11.82;7.93;;;;;;;;;;4183616;34;20472;-71
2023/04/09 12:05:27;;;;;;;11.23;7.95;;;;;;;;;;4172776;34;20133;-69
2023/04/09 12:08:11;;;;;;;16.42;8.27;;;;;;;;;;4169925;34;20086;-69
2023/04/09 12:10:38;;;;;;;13.62;8.32;;;;;;;;;;4159556;34;20053;-71
2023/04/09 12:13:07;;;;;;;12.37;8.68;;;;;;;;;;4163903;34;20063;-71
2023/04/09 12:15:34;;;;;;;11.93;7.40;;;;;;;;;;4167113;34;20077;-70
2023/04/09 12:18:00;;;;;;;13.45;8.60;;;;;;;;;;4167645;34;20032;-69
2023/04/09 12:20:28;;;;;;;12.10;7.95;;;;;;;;;;4179303;34;20064;-69
2023/04/09 12:22:54;;;;;;;17.17;10.48;;;;;;;;;;4180160;34;20062;-69
2023/04/09 12:25:21;;;;;;;22.23;12.02;;;;;;;;;;4178246;34;20040;-72
2023/04/09 12:27:47;;;;;;;16.62;10.60;;;;;;;;;;4179175;34;21511;-69
2023/04/09 12:30:13;;;;;;;23.33;13.35;;;;;;;;;;4180845;34;20486;-70
2023/04/09 12:32:45;;;;;;;;;;;;;;;;;;4170411;34;20040;-70
2023/04/09 12:35:12;;;;;;;18.35;11.60;;;;;;;;;;4166966;34;19942;-72
2023/04/09 12:37:38;;;;;;;18.70;11.43;;;;;;;;;;4164683;34;20073;-69
2023/04/09 12:40:05;;;;;;;18.35;10.85;;;;;;;;;;4165647;34;20131;-70
2023/04/09 12:42:32;;;;;;;18.40;11.07;;;;;;;;;;4164925;34;20467;-69
2023/04/09 12:45:05;;;;;;;20.55;10.48;;;;;;;;;;4165080;34;20060;-72
2023/04/09 12:47:31;;;;;;;18.95;10.32;;;;;;;;;;4164047;34;20048;-69
2023/04/09 12:49:57;;;;;;;15.45;9.70;;;;;;;;;;4165205;34;20689;-70
2023/04/09 12:52:23;;;;;;;19.20;11.32;;;;;;;;;;4164798;34;20057;-69
2023/04/09 12:54:51;;;;;;;20.70;10.15;;;;;;;;;;4138083;34;20080;-68
2023/04/09 12:57:17;;;;;;;12.68;9.63;;;;;;;;;;4149416;34;20095;-70
2023/04/09 12:59:43;;;;;;;20.23;11.00;;;;;;;;;;4136085;34;20091;-68
2023/04/09 13:02:09;;;;;;;18.85;10.70;;;;;;;;;;4135778;34;20090;-68
2023/04/09 13:04:36;;;;;;;14.00;9.43;;;;;;;;;;4149322;34;20150;-69
2023/04/09 13:07:02;;;;;;;16.33;10.23;;;;;;;;;;4153125;34;20062;-71
2023/04/09 13:09:28;;;;;;;20.40;9.93;;;;;;;;;;4150046;34;20118;-69
2023/04/09 13:11:54;;;;;;;19.50;10.15;;;;;;;;;;4148578;34;20040;-69
2023/04/09 13:14:21;;;;;;;15.77;9.98;;;;;;;;;;4137317;34;20057;-69
2023/04/09 13:16:48;;;;;;;17.50;10.20;;;;;;;;;;4119504;34;20049;-71
2023/04/09 13:19:15;;;;;;;16.35;10.00;;;;;;;;;;4120752;34;20041;-71
2023/04/09 13:21:41;;;;;;;14.00;9.95;;;;;;;;;;4117836;34;20490;-72
2023/04/09 13:24:07;;;;;;;20.85;10.82;;;;;;;;;;4124128;34;20203;-72
2023/04/09 13:26:33;;;;;;;18.00;11.07;;;;;;;;;;4134668;34;20052;-70
2023/04/09 13:29:00;;;;;;;17.58;10.02;;;;;;;;;;4139190;34;20350;-70
2023/04/09 13:31:26;;;;;;;15.38;9.98;;;;;;;;;;4136591;34;20053;-70
2023/04/09 13:33:53;;;;;;;15.18;10.30;;;;;;;;;;4149885;34;20056;-72
2023/04/09 13:36:19;;;;;;;23.15;13.15;;;;;;;;;;4162182;34;20052;-72
2023/04/09 13:38:46;;;;;;;20.15;11.50;;;;;;;;;;4167437;34;20152;-71
2023/04/09 13:41:12;;;;;;;27.95;12.50;;;;;;;;;;4170583;34;20177;-70
2023/04/09 13:43:38;;;;;;;19.52;11.77;;;;;;;;;;4167372;34;20476;-70
2023/04/09 13:46:05;;;;;;;21.37;12.73;;;;;;;;;;4173774;34;20118;-72
2023/04/09 13:48:31;;;;;;;21.90;12.05;;;;;;;;;;4158075;34;20052;-72
2023/04/09 13:50:57;;;;;;;15.93;10.65;;;;;;;;;;4179783;34;20048;-71
2023/04/09 13:53:24;;;;;;;17.80;10.85;;;;;;;;;;4179199;34;20063;-70
2023/04/09 13:55:50;;;;;;;16.95;10.57;;;;;;;;;;4181449;34;20558;-71
2023/04/09 13:58:16;;;;;;;15.20;9.50;;;;;;;;;;4166271;34;20410;-73
2023/04/09 14:00:42;;;;;;;16.73;9.80;;;;;;;;;;4166130;34;20464;-70
2023/04/09 14:03:09;;;;;;;15.85;9.95;;;;;;;;;;4176985;34;20055;-70
2023/04/09 14:05:35;;;;;;;18.80;11.15;;;;;;;;;;4180785;34;20145;-71
2023/04/09 14:08:02;;;;;;;18.60;11.55;;;;;;;;;;4181929;34;20481;-70
2023/04/09 14:10:29;;;;;;;18.40;10.70;;;;;;;;;;4200997;34;20835;-71
2023/04/09 14:12:55;;;;;;;18.60;10.20;;;;;;;;;;4206383;34;20182;-69
2023/04/09 14:15:21;;;;;;;21.50;13.85;;;;;;;;;;4193627;34;20046;-71
2023/04/09 14:17:48;;;;;;;27.00;15.23;;;;;;;;;;4170137;34;20059;-68
2023/04/09 14:20:14;;;;;;;27.15;16.30;;;;;;;;;;4167337;34;20128;-70
2023/04/09 14:22:41;;;;;;;27.48;15.02;;;;;;;;;;4178052;34;20179;-72
2023/04/09 14:25:08;;;;;;;29.00;15.07;;;;;;;;;;4140527;34;20072;-70
2023/04/09 14:27:34;;;;;;;26.17;14.63;;;;;;;;;;4139663;34;20056;-70
2023/04/09 14:30:01;;;;;;;26.85;14.55;;;;;;;;;;4139917;34;21006;-70
2023/04/09 14:32:28;;;;;;;25.25;15.30;;;;;;;;;;4139473;34;20044;-71
2023/04/09 14:34:54;;;;;;;26.25;14.75;;;;;;;;;;4154760;34;20105;-70
2023/04/09 14:37:21;;;;;;;29.77;16.62;;;;;;;;;;4168286;34;20436;-70
2023/04/09 14:39:47;;;;;;;27.40;15.57;;;;;;;;;;4168575;34;20074;-69
2023/04/09 14:42:13;;;;;;;26.48;16.17;;;;;;;;;;4167083;34;20382;-69
2023/04/09 14:44:46;;;;;;;33.13;15.38;;;;;;;;;;4166621;34;20065;-69
2023/04/09 14:47:12;;;;;;;25.42;14.40;;;;;;;;;;4166805;34;20074;-69
2023/04/09 14:49:38;;;;;;;25.55;15.70;;;;;;;;;;4189587;34;20116;-69
2023/04/09 14:52:05;;;;;;;24.25;15.88;;;;;;;;;;4194034;34;20043;-69
2023/04/09 14:54:32;;;;;;;27.95;15.40;;;;;;;;;;4217795;34;20047;-70
2023/04/09 14:56:58;;;;;;;25.37;15.82;;;;;;;;;;4243191;33;20096;-69
2023/04/09 14:59:25;;;;;;;28.40;16.08;;;;;;;;;;4251666;33;20074;-69
2023/04/09 15:01:51;;;;;;;23.83;13.85;;;;;;;;;;4250395;33;20080;-68
2023/04/09 15:04:17;;;;;;;24.10;14.93;;;;;;;;;;4222027;34;20104;-70
2023/04/09 15:06:44;;;;;;;26.10;15.90;;;;;;;;;;4220472;33;20074;-72
2023/04/09 15:09:10;;;;;;;21.65;13.30;;;;;;;;;;4222001;33;20095;-71
2023/04/09 15:11:37;;;;;;;24.15;14.10;;;;;;;;;;4219934;33;20055;-69
2023/04/09 15:14:03;;;;;;;28.48;14.10;;;;;;;;;;4209092;34;20113;-69
2023/04/09 15:16:32;;;;;;;27.67;16.05;;;;;;;;;;4208051;34;20359;-69
2023/04/09 15:18:58;;;;;;;28.83;15.73;;;;;;;;;;4192520;34;20044;-71
2023/04/09 15:21:26;;;;;;;24.12;14.75;;;;;;;;;;4194811;34;20248;-70
2023/04/09 15:23:52;;;;;;;33.88;17.05;;;;;;;;;;4194605;34;20073;-70
2023/04/09 15:26:19;;;;;;;37.05;17.25;;;;;;;;;;4194242;34;20052;-70
2023/04/09 15:28:45;;;;;;;28.92;14.82;;;;;;;;;;4194183;34;20036;-70
2023/04/09 15:31:12;;;;;;;26.87;14.95;;;;;;;;;;4191412;34;20492;-69
2023/04/09 15:33:40;;;;;;;33.63;16.40;;;;;;;;;;4200081;34;20769;-69
2023/04/09 15:36:07;;;;;;;24.77;14.15;;;;;;;;;;4207999;34;20450;-71
2023/04/09 15:38:36;;;;;;;25.50;14.82;;;;;;;;;;4208535;34;20069;-70
2023/04/09 15:41:03;;;;;;;26.62;14.68;;;;;;;;;;4183018;34;20058;-72
2023/04/09 15:43:30;;;;;;;31.62;14.48;;;;;;;;;;4180466;34;20047;-71
2023/04/09 15:45:57;;;;;;;26.92;15.40;;;;;;;;;;4193673;34;20070;-69
2023/04/09 15:48:23;;;;;;;25.88;15.73;;;;;;;;;;4194345;34;20043;-71
2023/04/09 15:50:52;;;;;;;25.73;15.55;;;;;;;;;;4203458;34;20055;-73
2023/04/09 15:53:22;;;;;;;27.10;15.63;;;;;;;;;;4191841;34;20035;-69
2023/04/09 15:55:49;;;;;;;28.27;15.93;;;;;;;;;;4192814;34;20040;-70
2023/04/09 15:58:15;;;;;;;26.30;15.80;;;;;;;;;;4186778;34;20044;-70
2023/04/09 16:00:41;;;;;;;25.90;15.80;;;;;;;;;;4179016;34;20067;-70
2023/04/09 16:03:07;;;;;;;30.62;17.02;;;;;;;;;;4177704;34;20453;-70
2023/04/09 16:05:34;;;;;;;27.52;16.17;;;;;;;;;;4165162;34;20048;-70
2023/04/09 16:08:00;;;;;;;33.28;17.23;;;;;;;;;;4167124;34;20060;-70
2023/04/09 16:10:27;;;;;;;28.85;17.23;;;;;;;;;;4166536;34;20601;-69
2023/04/09 16:12:53;;;;;;;26.80;16.10;;;;;;;;;;4187621;34;20286;-69
2023/04/09 16:15:19;;;;;;;24.75;16.12;;;;;;;;;;4193165;34;20047;-72
2023/04/09 16:17:46;;;;;;;30.50;16.45;;;;;;;;;;4204281;34;20055;-69
2023/04/09 16:20:12;;;;;;;27.33;15.82;;;;;;;;;;4206199;34;20095;-69